FDB5JB UBBB-OINN
Flight info
| Callsign | FDB5JB |
|---|---|
| Flight time | 1h 3m |
| Altitude | 37000 |
| Route | NAMAS DCT PUTMA DCT IMKER |
| Aircraft | B738/M-SDE2E3FGHIRWXY/LB1 |
Departure
| Time | 2026-05-05 16:30 |
|---|---|
| Airport | Heydar Aliyev International Airport (UBBB) |
Arrival
| Time | 2026-05-05 17:34 |
|---|---|
| Airport | Nowshahr Airport (OINN) |
| Time | Latitude | Longitude | Altitude | Speed | Heading |
|---|---|---|---|---|---|
| 2026-05-05 16:09 | 40.45949 | 50.05849 | -3 ft | 0 kts | 55° |
| 2026-05-05 16:24 | 40.45939 | 50.05825 | -3 ft | 4 kts | 83° |
| 2026-05-05 16:24 | 40.45938 | 50.05816 | -3 ft | 1 kts | 89° |
| 2026-05-05 16:27 | 40.45935 | 50.05840 | -3 ft | 7 kts | 98° |
| 2026-05-05 16:27 | 40.45919 | 50.05919 | -3 ft | 10 kts | 119° |
| 2026-05-05 16:27 | 40.45866 | 50.05973 | -3 ft | 8 kts | 149° |
| 2026-05-05 16:27 | 40.45842 | 50.06036 | -4 ft | 8 kts | 88° |
| 2026-05-05 16:28 | 40.45822 | 50.06101 | -4 ft | 8 kts | 140° |
| 2026-05-05 16:28 | 40.45766 | 50.06115 | -4 ft | 10 kts | 177° |
| 2026-05-05 16:28 | 40.45693 | 50.06112 | -5 ft | 10 kts | 167° |
| 2026-05-05 16:28 | 40.45652 | 50.06165 | -5 ft | 6 kts | 105° |
| 2026-05-05 16:29 | 40.45652 | 50.06181 | -5 ft | 1 kts | 85° |
| 2026-05-05 16:29 | 40.45655 | 50.06214 | -6 ft | 6 kts | 83° |
| 2026-05-05 16:29 | 40.45667 | 50.06288 | -6 ft | 9 kts | 64° |
| 2026-05-05 16:29 | 40.45699 | 50.06316 | -6 ft | 9 kts | 10° |
| 2026-05-05 16:30 | 40.45924 | 50.06315 | -5 ft | 68 kts | 359° |
| 2026-05-05 16:30 | 40.46643 | 50.06302 | 6 ft | 135 kts | 359° |
| 2026-05-05 16:30 | 40.47677 | 50.06265 | 424 ft | 154 kts | 358° |
| 2026-05-05 16:30 | 40.48711 | 50.06259 | 1405 ft | 147 kts | 354° |
| 2026-05-05 16:31 | 40.49675 | 50.05714 | 2004 ft | 158 kts | 332° |
| 2026-05-05 16:31 | 40.50851 | 50.05439 | 2267 ft | 188 kts | 356° |
| 2026-05-05 16:31 | 40.52238 | 50.05241 | 2505 ft | 212 kts | 351° |
| 2026-05-05 16:31 | 40.53773 | 50.04935 | 2717 ft | 236 kts | 349° |
| 2026-05-05 16:32 | 40.55468 | 50.04595 | 3146 ft | 255 kts | 353° |
| 2026-05-05 16:32 | 40.57278 | 50.04902 | 3692 ft | 272 kts | 18° |
| 2026-05-05 16:32 | 40.58934 | 50.06186 | 4364 ft | 282 kts | 42° |
| 2026-05-05 16:32 | 40.60272 | 50.08110 | 5002 ft | 290 kts | 58° |
| 2026-05-05 16:33 | 40.60884 | 50.10629 | 5734 ft | 288 kts | 92° |
| 2026-05-05 16:33 | 40.60709 | 50.13235 | 6537 ft | 287 kts | 103° |
| 2026-05-05 16:33 | 40.60354 | 50.15827 | 7258 ft | 291 kts | 104° |
| 2026-05-05 16:33 | 40.59990 | 50.18476 | 7785 ft | 296 kts | 103° |
| 2026-05-05 16:34 | 40.59663 | 50.21167 | 8000 ft | 298 kts | 102° |
| 2026-05-05 16:34 | 40.59367 | 50.23868 | 7993 ft | 298 kts | 101° |
| 2026-05-05 16:34 | 40.59084 | 50.26565 | 8003 ft | 298 kts | 101° |
| 2026-05-05 16:34 | 40.58792 | 50.29273 | 8008 ft | 298 kts | 104° |
| 2026-05-05 16:35 | 40.58099 | 50.31817 | 8152 ft | 297 kts | 121° |
| 2026-05-05 16:35 | 40.57163 | 50.34254 | 8989 ft | 298 kts | 121° |
| 2026-05-05 16:35 | 40.56237 | 50.36703 | 9848 ft | 300 kts | 121° |
| 2026-05-05 16:35 | 40.55306 | 50.39203 | 10454 ft | 313 kts | 121° |
| 2026-05-05 16:36 | 40.54315 | 50.41874 | 10636 ft | 339 kts | 120° |
| 2026-05-05 16:36 | 40.53245 | 50.44769 | 10813 ft | 363 kts | 120° |
| 2026-05-05 16:36 | 40.52119 | 50.47836 | 11146 ft | 379 kts | 120° |
| 2026-05-05 16:36 | 40.50966 | 50.50984 | 11773 ft | 384 kts | 120° |
| 2026-05-05 16:37 | 40.49787 | 50.54206 | 12517 ft | 387 kts | 120° |
| 2026-05-05 16:37 | 40.48616 | 50.57400 | 13262 ft | 390 kts | 120° |
| 2026-05-05 16:37 | 40.47433 | 50.60623 | 13967 ft | 395 kts | 120° |
| 2026-05-05 16:37 | 40.46232 | 50.63886 | 14640 ft | 399 kts | 121° |
| 2026-05-05 16:38 | 40.45018 | 50.67180 | 15335 ft | 403 kts | 121° |
| 2026-05-05 16:38 | 40.43786 | 50.70521 | 16027 ft | 407 kts | 121° |
| 2026-05-05 16:38 | 40.42547 | 50.73873 | 16686 ft | 412 kts | 121° |
| 2026-05-05 16:38 | 40.41715 | 50.76127 | 17132 ft | 415 kts | 121° |
| 2026-05-05 16:39 | 40.40449 | 50.79550 | 17788 ft | 419 kts | 121° |
| 2026-05-05 16:39 | 40.39168 | 50.83009 | 18395 ft | 424 kts | 121° |
| 2026-05-05 16:39 | 40.37852 | 50.86551 | 18964 ft | 427 kts | 122° |
| 2026-05-05 16:39 | 40.36196 | 50.89730 | 19513 ft | 418 kts | 141° |
| 2026-05-05 16:40 | 40.33962 | 50.92016 | 20121 ft | 408 kts | 156° |
| 2026-05-05 16:40 | 40.31377 | 50.93436 | 20720 ft | 402 kts | 167° |
| 2026-05-05 16:40 | 40.28702 | 50.94576 | 21276 ft | 404 kts | 168° |
| 2026-05-05 16:40 | 40.26007 | 50.95671 | 21796 ft | 408 kts | 169° |
| 2026-05-05 16:41 | 40.23282 | 50.96771 | 22321 ft | 411 kts | 169° |
| 2026-05-05 16:41 | 40.20541 | 50.97887 | 22857 ft | 414 kts | 168° |
| 2026-05-05 16:41 | 40.17743 | 50.99039 | 23386 ft | 417 kts | 168° |
| 2026-05-05 16:41 | 40.15006 | 51.00176 | 23828 ft | 420 kts | 168° |
| 2026-05-05 16:42 | 40.12181 | 51.01359 | 24267 ft | 422 kts | 168° |
| 2026-05-05 16:42 | 40.09373 | 51.02539 | 24704 ft | 424 kts | 168° |
| 2026-05-05 16:42 | 40.06596 | 51.03707 | 25128 ft | 426 kts | 168° |
| 2026-05-05 16:42 | 40.03779 | 51.04893 | 25555 ft | 428 kts | 169° |
| 2026-05-05 16:43 | 40.00932 | 51.06090 | 25957 ft | 430 kts | 169° |
| 2026-05-05 16:43 | 39.98074 | 51.07291 | 26334 ft | 433 kts | 169° |
| 2026-05-05 16:43 | 39.95195 | 51.08499 | 26715 ft | 435 kts | 169° |
| 2026-05-05 16:43 | 39.92315 | 51.09706 | 27087 ft | 437 kts | 169° |
| 2026-05-05 16:44 | 39.89409 | 51.10923 | 27442 ft | 439 kts | 169° |
| 2026-05-05 16:44 | 39.86493 | 51.12143 | 27793 ft | 441 kts | 169° |
| 2026-05-05 16:44 | 39.83574 | 51.13363 | 28147 ft | 443 kts | 169° |
| 2026-05-05 16:44 | 39.80624 | 51.14596 | 28489 ft | 445 kts | 169° |
| 2026-05-05 16:45 | 39.77628 | 51.15846 | 28832 ft | 446 kts | 169° |
| 2026-05-05 16:45 | 39.74679 | 51.17077 | 29314 ft | 445 kts | 169° |
| 2026-05-05 16:45 | 39.71741 | 51.18304 | 29899 ft | 441 kts | 169° |
| 2026-05-05 16:45 | 39.68831 | 51.19519 | 30369 ft | 439 kts | 169° |
| 2026-05-05 16:46 | 39.65925 | 51.20729 | 30738 ft | 439 kts | 169° |
| 2026-05-05 16:46 | 39.63020 | 51.21934 | 31088 ft | 439 kts | 169° |
| 2026-05-05 16:46 | 39.60112 | 51.23141 | 31487 ft | 437 kts | 170° |
| 2026-05-05 16:46 | 39.57220 | 51.24341 | 31916 ft | 435 kts | 170° |
| 2026-05-05 16:47 | 39.54337 | 51.25535 | 32309 ft | 434 kts | 170° |
| 2026-05-05 16:47 | 39.51460 | 51.26726 | 32684 ft | 433 kts | 170° |
| 2026-05-05 16:47 | 39.48603 | 51.27907 | 33067 ft | 432 kts | 170° |
| 2026-05-05 16:47 | 39.45734 | 51.29093 | 33463 ft | 431 kts | 170° |
| 2026-05-05 16:48 | 39.42879 | 51.30272 | 33819 ft | 430 kts | 170° |
| 2026-05-05 16:48 | 39.40021 | 51.31450 | 34148 ft | 430 kts | 170° |
| 2026-05-05 16:48 | 39.37177 | 51.32622 | 34436 ft | 430 kts | 171° |
| 2026-05-05 16:48 | 39.34324 | 51.33796 | 34685 ft | 430 kts | 170° |
| 2026-05-05 16:49 | 39.31469 | 51.34969 | 34908 ft | 431 kts | 170° |
| 2026-05-05 16:49 | 39.28602 | 51.36146 | 34951 ft | 434 kts | 170° |
| 2026-05-05 16:49 | 39.22851 | 51.38507 | 34959 ft | 432 kts | 170° |
| 2026-05-05 16:50 | 39.17138 | 51.40852 | 34968 ft | 430 kts | 170° |
| 2026-05-05 16:50 | 39.11451 | 51.43180 | 34964 ft | 429 kts | 170° |
| 2026-05-05 16:51 | 39.05766 | 51.45501 | 34968 ft | 428 kts | 171° |
| 2026-05-05 16:51 | 39.00089 | 51.47815 | 34963 ft | 428 kts | 171° |
| 2026-05-05 16:52 | 38.94406 | 51.50128 | 34965 ft | 429 kts | 171° |
| 2026-05-05 16:52 | 38.88698 | 51.52447 | 34967 ft | 430 kts | 170° |
| 2026-05-05 16:53 | 38.82980 | 51.54766 | 34962 ft | 432 kts | 170° |
| 2026-05-05 16:53 | 38.77237 | 51.57092 | 34960 ft | 433 kts | 171° |
| 2026-05-05 16:54 | 38.71481 | 51.59420 | 34960 ft | 435 kts | 171° |
| 2026-05-05 16:54 | 38.65695 | 51.61755 | 34953 ft | 436 kts | 171° |
| 2026-05-05 16:55 | 38.59906 | 51.64088 | 34952 ft | 437 kts | 171° |
| 2026-05-05 16:55 | 38.54096 | 51.66426 | 34953 ft | 438 kts | 171° |
| 2026-05-05 16:56 | 38.48269 | 51.68767 | 34952 ft | 439 kts | 171° |
| 2026-05-05 16:56 | 38.42407 | 51.71118 | 34951 ft | 439 kts | 171° |
| 2026-05-05 16:57 | 38.36568 | 51.73455 | 34954 ft | 439 kts | 171° |
| 2026-05-05 16:57 | 38.30734 | 51.75787 | 34946 ft | 439 kts | 171° |
| 2026-05-05 16:58 | 38.24908 | 51.78112 | 34947 ft | 439 kts | 171° |
| 2026-05-05 16:58 | 38.19064 | 51.80439 | 34948 ft | 439 kts | 171° |
| 2026-05-05 16:59 | 38.13284 | 51.82742 | 34931 ft | 428 kts | 169° |
| 2026-05-05 16:59 | 38.10448 | 51.83871 | 34414 ft | 426 kts | 169° |
| 2026-05-05 16:59 | 38.07638 | 51.84986 | 33757 ft | 423 kts | 169° |
| 2026-05-05 17:00 | 38.04822 | 51.86100 | 32989 ft | 424 kts | 169° |
| 2026-05-05 17:00 | 38.01999 | 51.87216 | 32229 ft | 424 kts | 169° |
| 2026-05-05 17:00 | 37.99194 | 51.88324 | 31445 ft | 425 kts | 169° |
| 2026-05-05 17:00 | 37.96364 | 51.89442 | 30637 ft | 426 kts | 169° |
| 2026-05-05 17:01 | 37.93527 | 51.90563 | 29790 ft | 428 kts | 168° |
| 2026-05-05 17:01 | 37.90695 | 51.91684 | 29102 ft | 423 kts | 168° |
| 2026-05-05 17:01 | 37.87865 | 51.92803 | 28463 ft | 418 kts | 169° |
| 2026-05-05 17:01 | 37.85139 | 51.93880 | 27852 ft | 413 kts | 169° |
| 2026-05-05 17:02 | 37.82369 | 51.94947 | 27219 ft | 407 kts | 172° |
| 2026-05-05 17:02 | 37.79626 | 51.95596 | 26636 ft | 396 kts | 179° |
| 2026-05-05 17:02 | 37.76905 | 51.95755 | 26025 ft | 387 kts | 187° |
| 2026-05-05 17:02 | 37.74230 | 51.95553 | 25453 ft | 383 kts | 188° |
| 2026-05-05 17:03 | 37.71618 | 51.95344 | 24872 ft | 380 kts | 188° |
| 2026-05-05 17:03 | 37.68984 | 51.95135 | 24271 ft | 378 kts | 188° |
| 2026-05-05 17:03 | 37.66364 | 51.94932 | 23672 ft | 377 kts | 188° |
| 2026-05-05 17:03 | 37.63721 | 51.94732 | 22992 ft | 375 kts | 188° |
| 2026-05-05 17:04 | 37.61198 | 51.94546 | 22381 ft | 372 kts | 188° |
| 2026-05-05 17:04 | 37.58595 | 51.94356 | 21759 ft | 369 kts | 188° |
| 2026-05-05 17:04 | 37.56043 | 51.94171 | 21191 ft | 366 kts | 188° |
| 2026-05-05 17:04 | 37.53548 | 51.93991 | 20609 ft | 363 kts | 188° |
| 2026-05-05 17:05 | 37.51004 | 51.93808 | 20034 ft | 360 kts | 189° |
| 2026-05-05 17:05 | 37.48516 | 51.93629 | 19454 ft | 358 kts | 189° |
| 2026-05-05 17:05 | 37.46036 | 51.93450 | 18869 ft | 357 kts | 189° |
| 2026-05-05 17:05 | 37.43553 | 51.93270 | 18289 ft | 356 kts | 189° |
| 2026-05-05 17:06 | 37.41087 | 51.93092 | 17640 ft | 354 kts | 189° |
| 2026-05-05 17:06 | 37.38640 | 51.92917 | 17054 ft | 351 kts | 189° |
| 2026-05-05 17:06 | 37.36210 | 51.92743 | 16481 ft | 348 kts | 189° |
| 2026-05-05 17:06 | 37.33791 | 51.92570 | 15917 ft | 346 kts | 189° |
| 2026-05-05 17:07 | 37.31364 | 51.92396 | 15355 ft | 343 kts | 189° |
| 2026-05-05 17:07 | 37.28991 | 51.92225 | 14779 ft | 342 kts | 189° |
| 2026-05-05 17:07 | 37.26615 | 51.92055 | 14212 ft | 340 kts | 188° |
| 2026-05-05 17:07 | 37.24259 | 51.91885 | 13641 ft | 339 kts | 188° |
| 2026-05-05 17:08 | 37.21915 | 51.91717 | 13037 ft | 337 kts | 188° |
| 2026-05-05 17:08 | 37.20332 | 51.91603 | 12659 ft | 336 kts | 187° |
| 2026-05-05 17:08 | 37.17998 | 51.91435 | 12070 ft | 335 kts | 187° |
| 2026-05-05 17:08 | 37.15686 | 51.91270 | 11540 ft | 333 kts | 187° |
| 2026-05-05 17:09 | 37.13382 | 51.91105 | 11013 ft | 331 kts | 186° |
| 2026-05-05 17:09 | 37.11117 | 51.90945 | 10794 ft | 320 kts | 186° |
| 2026-05-05 17:09 | 37.08926 | 51.90791 | 10626 ft | 309 kts | 186° |
| 2026-05-05 17:09 | 37.06822 | 51.90643 | 10477 ft | 297 kts | 186° |
| 2026-05-05 17:10 | 37.04797 | 51.90499 | 10361 ft | 287 kts | 186° |
| 2026-05-05 17:10 | 37.02828 | 51.90360 | 10232 ft | 277 kts | 186° |
| 2026-05-05 17:10 | 37.00936 | 51.90225 | 10116 ft | 268 kts | 186° |
| 2026-05-05 17:10 | 36.99098 | 51.90094 | 9958 ft | 261 kts | 186° |
| 2026-05-05 17:11 | 36.97288 | 51.89964 | 9666 ft | 260 kts | 186° |
| 2026-05-05 17:11 | 36.95482 | 51.89834 | 9352 ft | 259 kts | 185° |
| 2026-05-05 17:11 | 36.93687 | 51.89705 | 9054 ft | 258 kts | 185° |
| 2026-05-05 17:11 | 36.91898 | 51.89578 | 8747 ft | 257 kts | 184° |
| 2026-05-05 17:12 | 36.90115 | 51.89450 | 8449 ft | 256 kts | 184° |
| 2026-05-05 17:12 | 36.88343 | 51.89324 | 8152 ft | 256 kts | 184° |
| 2026-05-05 17:12 | 36.86566 | 51.89198 | 7853 ft | 255 kts | 183° |
| 2026-05-05 17:12 | 36.84792 | 51.89072 | 7554 ft | 255 kts | 182° |
| 2026-05-05 17:13 | 36.83024 | 51.88947 | 7257 ft | 255 kts | 182° |
| 2026-05-05 17:13 | 36.81251 | 51.88822 | 6958 ft | 255 kts | 182° |
| 2026-05-05 17:13 | 36.79473 | 51.88696 | 6650 ft | 256 kts | 181° |
| 2026-05-05 17:13 | 36.77671 | 51.88569 | 6349 ft | 256 kts | 181° |
| 2026-05-05 17:14 | 36.75922 | 51.88446 | 6033 ft | 257 kts | 181° |
| 2026-05-05 17:14 | 36.74135 | 51.88320 | 5730 ft | 257 kts | 181° |
| 2026-05-05 17:14 | 36.72352 | 51.88194 | 5431 ft | 257 kts | 181° |
| 2026-05-05 17:14 | 36.70571 | 51.88069 | 5139 ft | 256 kts | 181° |
| 2026-05-05 17:15 | 36.68793 | 51.87897 | 4846 ft | 257 kts | 189° |
| 2026-05-05 17:15 | 36.67176 | 51.86904 | 4540 ft | 260 kts | 222° |
| 2026-05-05 17:15 | 36.66222 | 51.85054 | 4387 ft | 249 kts | 252° |
| 2026-05-05 17:15 | 36.65990 | 51.83010 | 4297 ft | 230 kts | 269° |
| 2026-05-05 17:16 | 36.65982 | 51.81084 | 4188 ft | 214 kts | 271° |
| 2026-05-05 17:16 | 36.65995 | 51.79296 | 4056 ft | 200 kts | 271° |
| 2026-05-05 17:16 | 36.66007 | 51.77598 | 3715 ft | 199 kts | 271° |
| 2026-05-05 17:16 | 36.66016 | 51.75849 | 3257 ft | 202 kts | 271° |
| 2026-05-05 17:17 | 36.66023 | 51.74092 | 2798 ft | 204 kts | 271° |
| 2026-05-05 17:17 | 36.65842 | 51.72392 | 2603 ft | 191 kts | 251° |
| 2026-05-05 17:17 | 36.65397 | 51.70845 | 2387 ft | 193 kts | 251° |
| 2026-05-05 17:17 | 36.64991 | 51.69237 | 1999 ft | 194 kts | 255° |
| 2026-05-05 17:18 | 36.64646 | 51.67645 | 1609 ft | 187 kts | 255° |
| 2026-05-05 17:18 | 36.64321 | 51.66122 | 1241 ft | 179 kts | 255° |
| 2026-05-05 17:18 | 36.64025 | 51.64681 | 1033 ft | 159 kts | 257° |
| 2026-05-05 17:18 | 36.63790 | 51.63395 | 947 ft | 148 kts | 258° |
| 2026-05-05 17:19 | 36.63569 | 51.62170 | 953 ft | 145 kts | 258° |
| 2026-05-05 17:19 | 36.63400 | 51.60907 | 963 ft | 149 kts | 265° |
| 2026-05-05 17:19 | 36.63360 | 51.59626 | 1061 ft | 148 kts | 273° |
| 2026-05-05 17:19 | 36.63463 | 51.58339 | 1061 ft | 151 kts | 279° |
| 2026-05-05 17:20 | 36.63647 | 51.57036 | 951 ft | 152 kts | 282° |
| 2026-05-05 17:20 | 36.63871 | 51.55728 | 677 ft | 153 kts | 284° |
| 2026-05-05 17:20 | 36.64131 | 51.54496 | 550 ft | 144 kts | 288° |
| 2026-05-05 17:20 | 36.64447 | 51.53306 | 578 ft | 147 kts | 290° |
| 2026-05-05 17:21 | 36.64799 | 51.52100 | 515 ft | 149 kts | 291° |
| 2026-05-05 17:21 | 36.65182 | 51.50891 | 338 ft | 151 kts | 291° |
| 2026-05-05 17:21 | 36.65518 | 51.49679 | 209 ft | 148 kts | 288° |
| 2026-05-05 17:22 | 36.66166 | 51.47228 | -48 ft | 147 kts | 290° |
| 2026-05-05 17:22 | 36.66504 | 51.45991 | 274 ft | 155 kts | 289° |
| 2026-05-05 17:22 | 36.66871 | 51.44642 | 830 ft | 175 kts | 289° |
| 2026-05-05 17:22 | 36.67257 | 51.43205 | 1385 ft | 177 kts | 289° |
| 2026-05-05 17:23 | 36.67651 | 51.41727 | 1978 ft | 181 kts | 288° |
| 2026-05-05 17:23 | 36.68047 | 51.40232 | 2527 ft | 183 kts | 288° |
| 2026-05-05 17:23 | 36.68444 | 51.38700 | 3081 ft | 187 kts | 288° |
| 2026-05-05 17:23 | 36.68837 | 51.37137 | 3614 ft | 192 kts | 288° |
| 2026-05-05 17:24 | 36.69237 | 51.35535 | 3809 ft | 195 kts | 288° |
| 2026-05-05 17:24 | 36.69637 | 51.33918 | 3838 ft | 196 kts | 287° |
| 2026-05-05 17:24 | 36.69570 | 51.32261 | 3837 ft | 195 kts | 242° |
| 2026-05-05 17:24 | 36.68633 | 51.31097 | 3863 ft | 193 kts | 205° |
| 2026-05-05 17:25 | 36.67341 | 51.30911 | 3848 ft | 188 kts | 167° |
| 2026-05-05 17:25 | 36.66506 | 51.31262 | 3729 ft | 188 kts | 144° |
| 2026-05-05 17:25 | 36.65690 | 51.33073 | 3537 ft | 182 kts | 104° |
| 2026-05-05 17:25 | 36.65342 | 51.34599 | 3314 ft | 184 kts | 105° |
| 2026-05-05 17:26 | 36.64994 | 51.36112 | 3065 ft | 180 kts | 105° |
| 2026-05-05 17:26 | 36.64655 | 51.37588 | 2812 ft | 176 kts | 105° |
| 2026-05-05 17:26 | 36.64315 | 51.39081 | 2635 ft | 184 kts | 105° |
| 2026-05-05 17:26 | 36.63964 | 51.40639 | 2578 ft | 189 kts | 105° |
| 2026-05-05 17:27 | 36.63612 | 51.42208 | 2544 ft | 188 kts | 105° |
| 2026-05-05 17:27 | 36.63261 | 51.43772 | 2539 ft | 187 kts | 105° |
| 2026-05-05 17:27 | 36.63176 | 51.45357 | 2517 ft | 187 kts | 72° |
| 2026-05-05 17:27 | 36.63722 | 51.46831 | 2547 ft | 189 kts | 65° |
| 2026-05-05 17:28 | 36.64280 | 51.48314 | 2541 ft | 188 kts | 65° |
| 2026-05-05 17:28 | 36.64832 | 51.49793 | 2536 ft | 188 kts | 65° |
| 2026-05-05 17:28 | 36.65381 | 51.51271 | 2537 ft | 188 kts | 65° |
| 2026-05-05 17:28 | 36.65928 | 51.52748 | 2531 ft | 187 kts | 65° |
| 2026-05-05 17:29 | 36.66471 | 51.54219 | 2542 ft | 187 kts | 65° |
| 2026-05-05 17:29 | 36.67008 | 51.55693 | 2531 ft | 187 kts | 69° |
| 2026-05-05 17:29 | 36.67065 | 51.57279 | 2564 ft | 184 kts | 98° |
| 2026-05-05 17:29 | 36.66900 | 51.58872 | 2549 ft | 186 kts | 96° |
| 2026-05-05 17:30 | 36.66747 | 51.60480 | 2552 ft | 187 kts | 96° |
| 2026-05-05 17:30 | 36.66504 | 51.62091 | 2530 ft | 188 kts | 116° |
| 2026-05-05 17:30 | 36.65536 | 51.63106 | 2554 ft | 187 kts | 165° |
| 2026-05-05 17:30 | 36.64284 | 51.62877 | 2552 ft | 189 kts | 213° |
| 2026-05-05 17:31 | 36.63570 | 51.61548 | 2570 ft | 191 kts | 258° |
| 2026-05-05 17:31 | 36.63372 | 51.59944 | 2444 ft | 185 kts | 261° |
| 2026-05-05 17:31 | 36.63368 | 51.58401 | 1957 ft | 178 kts | 281° |
| 2026-05-05 17:31 | 36.63653 | 51.56908 | 1472 ft | 170 kts | 285° |
| 2026-05-05 17:32 | 36.63946 | 51.55552 | 1178 ft | 156 kts | 286° |
| 2026-05-05 17:32 | 36.64236 | 51.54294 | 908 ft | 148 kts | 288° |
| 2026-05-05 17:32 | 36.64545 | 51.53092 | 699 ft | 145 kts | 290° |
| 2026-05-05 17:32 | 36.64885 | 51.51906 | 556 ft | 148 kts | 290° |
| 2026-05-05 17:33 | 36.65130 | 51.51092 | 399 ft | 151 kts | 291° |
| 2026-05-05 17:33 | 36.65480 | 51.49870 | 258 ft | 149 kts | 289° |
| 2026-05-05 17:33 | 36.65806 | 51.48617 | 87 ft | 150 kts | 288° |
| 2026-05-05 17:33 | 36.66128 | 51.47385 | -65 ft | 150 kts | 289° |
| 2026-05-05 17:34 | 36.66396 | 51.46405 | -56 ft | 64 kts | 288° |
| 2026-05-05 17:34 | 36.66419 | 51.46322 | -57 ft | 0 kts | 291° |
| 2026-05-05 17:34 | 36.66419 | 51.46321 | -56 ft | 0 kts | 279° |
| 2026-05-05 17:34 | 36.66414 | 51.46317 | -57 ft | 1 kts | 212° |
| 2026-05-05 17:35 | 36.66406 | 51.46326 | -58 ft | 2 kts | 125° |
| 2026-05-05 17:35 | 36.66396 | 51.46373 | -58 ft | 11 kts | 105° |
| 2026-05-05 17:35 | 36.66364 | 51.46519 | -58 ft | 22 kts | 105° |
| 2026-05-05 17:35 | 36.66307 | 51.46724 | -63 ft | 28 kts | 109° |
| 2026-05-05 17:36 | 36.66253 | 51.46920 | -64 ft | 13 kts | 108° |
| 2026-05-05 17:36 | 36.66218 | 51.47000 | -63 ft | 5 kts | 150° |
| 2026-05-05 17:36 | 36.66170 | 51.46998 | -65 ft | 10 kts | 197° |
| 2026-05-05 17:36 | 36.66139 | 51.46959 | -65 ft | 5 kts | 257° |
| 2026-05-05 17:37 | 36.66132 | 51.46920 | -67 ft | 3 kts | 231° |
| 2026-05-05 17:37 | 36.66113 | 51.46913 | -62 ft | 0 kts | 168° |